AirNav   TITAN Aviation Fuels
 
 1464 users online  

3AL0 Fayette Medical Center Heliport
Fayette, Alabama, USA

GOING TO FAYETTE?


FAA INFORMATION EFFECTIVE 22 APRIL 2021

Location

FAA Identifier: 3AL0
Lat/Long: 33-42-33.0000N 087-49-25.0000W
33-42.550000N 087-49.416667W
33.7091667,-87.8236111
(estimated)
Elevation: 370 ft. / 113 m (estimated)
Variation: 00E (1990)
From city: 1 mile N of FAYETTE, AL
Time zone: UTC -5 (UTC -6 during Standard Time)
Zip code: 35555

Heliport Operations

Heliport use: Private use, MEDICAL USE.
Activation date: 07/1995
Control tower: no
ARTCC: MEMPHIS CENTER
FSS: ANNISTON FLIGHT SERVICE STATION
Attendance: UNATNDD
Wind indicator: lighted
Segmented circle: no
Lights: SS-SR

Nearby radio navigation aids

VOR radial/distance  VOR name  Freq  Var
LDKr329/30.6CRIMSON VORTAC117.8003E
CBMr082/31.0CALEDONIA VORTAC115.2000E
IGBr065/37.0BIGBEE VORTAC116.2004E

Heliport Services

Runway Information

Helipad H1

Dimensions: 50 x 50 ft. / 15 x 15 m
Surface: concrete
Runway edge lights: PERI
Runway edge markings: REFLECTIVE PAINT.
Latitude: 33-42.550000N
Longitude: 087-49.416667W
Elevation: 370.0 ft.
Traffic pattern: leftleft
Markings: basic, in good condition

Heliport Ownership and Management from official FAA records

Ownership: Privately-owned
Owner: FAYETTE MEDICAL CENTER
1653 TEMPLE AVE., N
FAYETTE, AL 35555
Phone 205-932-5966
Manager: DONALD J. JONES, ADMIN
1653 TEMPLE AVE., N
FAYETTE, AL 35555
Phone 205-932-5966
OTHER CONTACT: JAMES BURKHALTER - ENGINEERING.

Additional Remarks

A52-H1 45 FT TREES 125 FT W; 90 FT TREES 225 FT N; 60 FT TREES 300 FT E; 30 FT POWERLINE 300 FT ESE; 60 FT POWERLINE 300 FT SE; 30 FT POWERLINE 175 FT S & 129 FT ANTENNA 400 FT SW.
FOR CD CTC MEMPHIS ARTCC AT 901-368-8453/8449.

Instrument Procedures

There are no published instrument procedures at 3AL0.

Some nearby airports with instrument procedures:

M95 - Richard Arthur Field Airport (0 nm E)
M55 - Lamar County Airport (17 nm NW)
3M8 - North Pickens Airport (21 nm SW)
KHAB - Marion County-Rankin Fite Airport (26 nm N)
KJFX - Walker County Airport-Bevill Field (28 nm NE)
 
Loc | Ops | Rwys | IFR | FBO | Links
Com | Nav | Svcs | Stats | Notes
Area around 3AL0 (Fayette Medical Center Heliport)
 
Road maps at: MapQuest Bing Google
 
Aerial photo
No photo
 
Sectional chart

 
Airport distance calculator
Flying to Fayette Medical Center Heliport? Find the distance to fly.

From to 3AL0

Sunrise and sunset
Times for 14-May-2021
 Local
(UTC-5)
 Zulu
(UTC)
Morning civil twilight05:2510:25
Sunrise05:5210:52
Sunset19:4300:43
Evening civil twilight20:1101:11

Current date and time
Zulu (UTC)  14-May-2021 17:33:31
Local (UTC-5)  14-May-2021 12:33:31
 
METAR
KJFX 
28nm NE 
141715Z AUTO VRB03KT 9SM CLR 24/06 A3028 RMK AO2 PWINO
KTCL 
31nm S 
141653Z 08006KT 10SM SCT065 23/07 A3027 RMK AO2 SLP250 T02280067
KCBM 
32nm W 
141656Z AUTO 06007KT 10SM SCT065 23/07 A3028 RMK AO2 SLP255 T02290066 $
KM40 
35nm W 
141715Z AUTO VRB04G10KT 10SM CLR 22/05 A3029 RMK AO2
K1M4 
36nm N 
141656Z AUTO 20004KT 10SM FEW065 21/06 A3032 RMK AO2 SLP751 T02060056
KGTR 
40nm SW 
141656Z 34006KT 10SM FEW060 23/09 A3029 RMK AO2 SLP263 T02280089
TAF
KTCL 
31nm S 
141120Z 1412/1512 VRB04KT P6SM FEW080
KCBM 
32nm W 
140900Z 1409/1515 02005KT 9999 FEW070 QNH3017INS BECMG 1412/1413 04005KT 9999 SKC QNH3010INS TX24/1420Z TN10/1411Z
NOTAMs
Click for the latest NOTAMs
NOTAMs are issued by the DoD/FAA and will open in a separate window not controlled by AirNav.

 

 
 

Would you like to see your business listed on this page?

 If your business provides an interesting product or service to pilots, flight crews, aircraft, or users of the Fayette Medical Center Heliport, you should consider listing it here.  To start the listing process, click on the button below
 
Add a business
 

Other Pages about Fayette Medical Center Heliport

Update a link
 
Copyright © AirNav, LLC. All rights reserved. Privacy Policy  Contact